Terminal Aerodrome Forecast
Issued by NWS

Current Version | Previous Version | Graphics & Text | Print | Product List | Glossary On
Versions: 1 2 3 4 5 6 7 8 9 10 11 12 13 14 15 16
000
FTUS41 KILN 212000 AAA
TAFLCK
TAF AMD
KLCK 212021Z 2120/2218 24011G19KT P6SM BKN150
     FM212300 23011KT P6SM BKN150
     FM220200 22010KT P6SM VCSH SCT050 OVC100
     FM220800 24012KT P6SM -SHRA BKN050 OVC100
     FM221300 30013G20KT P6SM OVC018
     FM221600 32016G26KT P6SM SCT035=

USA.gov is the U.S. government's official web portal to all federal, state and local government web resources and services.